Time;durP1;ratioP1;P1;durP2;ratioP2;P2;SDS_P1;SDS_P2;PMS_P1;PMS_P2;Temp;Humidity;BMP_temperature;BMP_pressure;BME280_temperature;BME280_humidity;BME280_pressure;Samples;Min_cycle;Max_cycle;Signal;HPM_P1;HPM_P2
2022/11/06 00:02:14;;;;;;;18.13;13.80;;;5.20;99.90;;;;;;5088419;28;20309;-69
2022/11/06 00:04:39;;;;;;;13.30;12.00;;;5.20;99.90;;;;;;5088338;28;20176;-69
2022/11/06 00:07:06;;;;;;;16.30;13.30;;;5.20;99.90;;;;;;5086194;28;20224;-69
2022/11/06 00:09:33;;;;;;;16.97;14.00;;;5.20;99.90;;;;;;5074571;28;20606;-68
2022/11/06 00:11:59;;;;;;;17.17;13.77;;;5.10;99.90;;;;;;5074725;28;20810;-69
2022/11/06 00:14:24;;;;;;;15.50;12.77;;;5.10;99.90;;;;;;5074831;28;20427;-69
2022/11/06 00:16:50;;;;;;;15.83;13.87;;;5.20;99.90;;;;;;5074580;28;20241;-70
2022/11/06 00:19:16;;;;;;;14.73;13.20;;;5.10;99.90;;;;;;5074299;28;20650;-70
2022/11/06 00:21:42;;;;;;;12.87;11.57;;;5.10;99.90;;;;;;5074409;28;20189;-69
2022/11/06 00:24:10;;;;;;;14.00;12.50;;;5.10;99.90;;;;;;5074402;28;20426;-69
2022/11/06 00:26:36;;;;;;;14.57;12.40;;;5.10;99.90;;;;;;5074451;28;20434;-68
2022/11/06 00:29:03;;;;;;;16.97;12.30;;;5.20;99.90;;;;;;5074152;28;20423;-68
2022/11/06 00:31:31;;;;;;;15.90;13.90;;;5.20;99.90;;;;;;5074373;28;20667;-69
2022/11/06 00:33:58;;;;;;;16.60;12.50;;;5.20;99.90;;;;;;5074263;28;20518;-69
2022/11/06 00:36:25;;;;;;;17.80;13.57;;;5.20;99.90;;;;;;5074247;28;20465;-68
2022/11/06 00:38:52;;;;;;;18.93;12.50;;;5.30;99.90;;;;;;5073978;28;20415;-68
2022/11/06 00:41:18;;;;;;;15.10;12.60;;;5.20;99.90;;;;;;5074146;28;20912;-68
2022/11/06 00:43:52;;;;;;;16.23;14.10;;;5.20;99.90;;;;;;5074142;28;20407;-71
2022/11/06 00:46:18;;;;;;;16.77;13.07;;;5.10;99.90;;;;;;5074108;28;20414;-70
2022/11/06 00:48:44;;;;;;;14.73;13.00;;;5.10;99.90;;;;;;5073707;28;20458;-71
2022/11/06 00:51:13;;;;;;;16.40;14.23;;;5.00;99.90;;;;;;5073882;28;20963;-70
2022/11/06 00:53:39;;;;;;;16.87;12.83;;;5.00;99.90;;;;;;5073940;28;20995;-70
2022/11/06 00:56:16;;;;;;;18.10;13.83;;;4.90;99.90;;;;;;5073618;28;20557;-70
2022/11/06 00:58:42;;;;;;;19.27;15.73;;;4.90;99.90;;;;;;5073665;28;20173;-70
2022/11/06 01:01:11;;;;;;;20.20;13.50;;;5.00;99.90;;;;;;5073687;28;20501;-69
2022/11/06 01:03:39;;;;;;;20.00;14.17;;;4.90;99.90;;;;;;5073607;28;20431;-69
2022/11/06 01:06:13;;;;;;;15.33;13.80;;;4.90;99.90;;;;;;5073740;28;20449;-70
2022/11/06 01:08:39;;;;;;;16.13;12.30;;;4.90;99.90;;;;;;5073417;28;20416;-68
2022/11/06 01:11:15;;;;;;;15.73;11.40;;;4.80;99.90;;;;;;5073554;28;20460;-69
2022/11/06 01:13:41;;;;;;;16.53;13.40;;;4.80;99.90;;;;;;5073501;28;20419;-70
2022/11/06 01:16:09;;;;;;;14.63;12.17;;;4.80;99.90;;;;;;5073318;28;20818;-70
2022/11/06 01:18:36;;;;;;;16.10;13.20;;;4.80;99.90;;;;;;5071528;28;20479;-70
2022/11/06 01:21:29;;;;;;;16.63;12.40;;;4.80;99.90;;;;;;5072834;28;20779;-69
2022/11/06 01:24:07;;;;;;;16.23;12.97;;;4.80;99.90;;;;;;5071361;28;20423;-70
2022/11/06 01:26:33;;;;;;;14.63;12.80;;;4.70;99.90;;;;;;5073477;28;20433;-70
2022/11/06 01:28:59;;;;;;;13.43;11.80;;;4.70;99.90;;;;;;5072934;28;20419;-70
2022/11/06 01:31:28;;;;;;;16.70;13.07;;;4.60;99.90;;;;;;5073148;28;20504;-70
2022/11/06 01:33:55;;;;;;;16.50;14.67;;;4.60;99.90;;;;;;5073067;28;20419;-70
2022/11/06 01:36:21;;;;;;;16.27;13.10;;;4.70;99.90;;;;;;5073268;28;20832;-70
2022/11/06 01:38:49;;;;;;;16.87;13.50;;;4.60;99.90;;;;;;5072741;28;20412;-70
2022/11/06 01:41:18;;;;;;;17.13;14.23;;;4.60;99.90;;;;;;5072910;28;20421;-70
2022/11/06 01:43:55;;;;;;;16.20;12.13;;;4.60;99.90;;;;;;5072986;28;20904;-70
2022/11/06 01:46:24;;;;;;;14.83;12.80;;;4.60;99.90;;;;;;5072890;28;20442;-70
2022/11/06 01:49:03;;;;;;;12.97;11.30;;;4.60;99.90;;;;;;5072508;28;20411;-69
2022/11/06 01:51:33;;;;;;;15.97;12.43;;;4.60;99.90;;;;;;5072763;28;20415;-70
2022/11/06 01:54:01;;;;;;;20.10;12.20;;;4.60;99.90;;;;;;5072762;28;20879;-71
2022/11/06 01:56:27;;;;;;;17.20;12.33;;;4.50;99.90;;;;;;5072511;28;20474;-69
2022/11/06 01:58:54;;;;;;;17.30;12.57;;;4.50;99.90;;;;;;5072349;28;20419;-69
2022/11/06 02:01:20;;;;;;;13.30;11.90;;;4.50;99.90;;;;;;5072652;28;20240;-70
2022/11/06 02:03:56;;;;;;;13.77;12.37;;;4.50;99.90;;;;;;5072719;28;20510;-70
2022/11/06 02:06:22;;;;;;;15.33;13.00;;;4.40;99.90;;;;;;5072634;28;20175;-69
2022/11/06 02:08:48;;;;;;;13.90;11.00;;;4.40;99.90;;;;;;5072249;28;20783;-69
2022/11/06 02:11:13;;;;;;;14.10;12.07;;;4.40;99.90;;;;;;5072544;28;20539;-70
2022/11/06 02:13:57;;;;;;;13.03;10.80;;;4.40;99.90;;;;;;5072413;28;20539;-70
2022/11/06 02:16:46;;;;;;;17.10;13.00;;;4.40;99.90;;;;;;5072367;28;20227;-69
2022/11/06 02:19:20;;;;;;;15.57;11.30;;;4.40;99.90;;;;;;5072134;28;20412;-70
2022/11/06 02:21:48;;;;;;;18.77;12.87;;;4.50;99.90;;;;;;5072203;28;20827;-70
2022/11/06 02:24:17;;;;;;;15.23;13.10;;;4.40;99.90;;;;;;5072224;28;20419;-68
2022/11/06 02:27:12;;;;;;;16.93;13.33;;;4.40;99.90;;;;;;5072255;28;20426;-69
2022/11/06 02:30:05;;;;;;;15.57;13.17;;;4.40;99.90;;;;;;5072259;28;20908;-68
2022/11/06 02:32:49;;;;;;;17.40;11.80;;;4.40;99.90;;;;;;5072002;28;20427;-68
2022/11/06 02:35:41;;;;;;;13.23;11.40;;;4.40;99.90;;;;;;5072211;28;20498;-69
2022/11/06 02:38:11;;;;;;;15.70;12.13;;;4.40;99.90;;;;;;5072161;28;20411;-68
2022/11/06 02:40:40;;;;;;;15.40;13.13;;;4.40;99.90;;;;;;5072005;28;20419;-68
2022/11/06 02:43:08;;;;;;;13.53;12.10;;;4.30;99.90;;;;;;5071999;28;20454;-67
2022/11/06 02:45:40;;;;;;;13.87;11.50;;;4.30;99.90;;;;;;5072149;28;20905;-68
2022/11/06 02:48:09;;;;;;;15.20;12.00;;;4.30;99.90;;;;;;5071943;28;20411;-69
2022/11/06 02:50:41;;;;;;;16.40;12.40;;;4.30;99.90;;;;;;5071989;28;20418;-68
2022/11/06 02:53:10;;;;;;;18.20;12.63;;;4.20;99.90;;;;;;5071896;28;20527;-68
2022/11/06 02:55:51;;;;;;;14.03;10.73;;;4.20;99.90;;;;;;5071693;28;20472;-68
2022/11/06 02:58:24;;;;;;;13.80;12.33;;;4.20;99.90;;;;;;5071607;28;20415;-68
2022/11/06 03:00:58;;;;;;;14.73;12.10;;;4.20;99.90;;;;;;5071955;28;20419;-68
2022/11/06 03:03:27;;;;;;;16.27;12.10;;;4.10;99.90;;;;;;5071865;28;20439;-68
2022/11/06 03:06:05;;;;;;;16.00;12.90;;;4.10;99.90;;;;;;5072064;28;20477;-67
2022/11/06 03:08:41;;;;;;;14.50;12.00;;;4.10;99.90;;;;;;5071620;28;20411;-68
2022/11/06 03:11:24;;;;;;;14.23;11.83;;;4.10;99.90;;;;;;5071943;28;20439;-68
2022/11/06 03:14:10;;;;;;;16.40;11.77;;;4.10;99.90;;;;;;5071816;28;20467;-68
2022/11/06 03:16:41;;;;;;;12.40;11.07;;;4.10;99.90;;;;;;5071679;28;20451;-68
2022/11/06 03:19:18;;;;;;;17.17;13.30;;;4.00;99.90;;;;;;5071525;28;20422;-68
2022/11/06 03:22:08;;;;;;;14.77;11.87;;;4.00;99.90;;;;;;5071708;28;20427;-68
2022/11/06 03:24:46;;;;;;;16.07;12.30;;;4.10;99.90;;;;;;5066470;28;20423;-68
2022/11/06 03:27:38;;;;;;;14.67;11.37;;;4.00;99.90;;;;;;5071881;28;20461;-69
2022/11/06 03:30:09;;;;;;;14.47;10.73;;;4.00;99.90;;;;;;5070796;28;20432;-68
2022/11/06 03:32:52;;;;;;;13.00;11.53;;;4.00;99.90;;;;;;5071549;28;20812;-68
2022/11/06 03:35:33;;;;;;;15.10;12.63;;;3.90;99.90;;;;;;5071602;28;20505;-68
2022/11/06 03:38:10;;;;;;;14.00;12.13;;;3.90;99.90;;;;;;5071564;28;20793;-67
2022/11/06 03:40:41;;;;;;;14.60;11.97;;;3.90;99.90;;;;;;5071489;28;20456;-68
2022/11/06 03:43:08;;;;;;;15.07;12.30;;;3.90;99.90;;;;;;5072900;28;20453;-68
2022/11/06 03:45:36;;;;;;;13.20;11.07;;;3.80;99.90;;;;;;5075479;28;20411;-67
2022/11/06 03:48:01;;;;;;;14.00;12.60;;;3.80;99.90;;;;;;5075167;28;20439;-68
2022/11/06 03:50:45;;;;;;;13.30;11.80;;;3.80;99.90;;;;;;5074986;28;20817;-68
2022/11/06 03:53:19;;;;;;;16.47;13.43;;;3.80;99.90;;;;;;5075146;28;20287;-68
2022/11/06 03:55:54;;;;;;;15.00;12.80;;;3.70;99.90;;;;;;5074874;28;20466;-68
2022/11/06 03:58:24;;;;;;;15.00;12.80;;;3.70;99.90;;;;;;5074679;28;20869;-68
2022/11/06 04:00:51;;;;;;;15.20;11.93;;;3.70;99.90;;;;;;5075087;28;20472;-68
2022/11/06 04:03:31;;;;;;;16.70;14.13;;;3.70;99.90;;;;;;5074900;28;20831;-68
2022/11/06 04:06:19;;;;;;;14.73;13.00;;;3.60;99.90;;;;;;5074868;28;20422;-68
2022/11/06 04:14:23;;;;;;;14.87;11.87;;;3.60;99.90;;;;;;5074683;28;20489;-68
2022/11/06 04:16:53;;;;;;;16.70;12.63;;;3.50;99.90;;;;;;5074808;28;20462;-69
2022/11/06 04:19:21;;;;;;;15.97;12.20;;;3.50;99.90;;;;;;5074315;28;20488;-67
2022/11/06 04:22:08;;;;;;;17.03;12.90;;;3.40;99.90;;;;;;5074508;28;20446;-68
2022/11/06 04:27:51;;;;;;;16.10;12.50;;;3.40;99.90;;;;;;5074551;28;20422;-68
2022/11/06 04:30:18;;;;;;;14.00;12.03;;;3.40;99.90;;;;;;5074183;28;20419;-67
2022/11/06 04:33:01;;;;;;;14.73;11.73;;;3.40;99.90;;;;;;5074319;28;20435;-68
2022/11/06 04:35:30;;;;;;;14.23;12.60;;;3.40;99.90;;;;;;5074287;28;20422;-69
2022/11/06 04:38:29;;;;;;;15.93;11.83;;;3.30;99.90;;;;;;5074438;28;20429;-68
2022/11/06 04:41:20;;;;;;;16.40;13.47;;;3.30;99.90;;;;;;5074250;28;20464;-69
2022/11/06 04:43:48;;;;;;;14.47;12.13;;;3.30;99.90;;;;;;5074094;28;20428;-68
2022/11/06 04:46:28;;;;;;;15.90;12.80;;;3.20;99.90;;;;;;5074343;28;20462;-68
2022/11/06 04:48:54;;;;;;;12.97;11.77;;;3.20;99.90;;;;;;5073851;28;20415;-68
2022/11/06 04:51:24;;;;;;;12.50;11.20;;;3.10;99.90;;;;;;5073989;28;20429;-69
2022/11/06 04:53:51;;;;;;;16.07;11.83;;;3.10;99.90;;;;;;5073888;28;20165;-68
2022/11/06 04:56:28;;;;;;;13.20;11.80;;;3.10;99.90;;;;;;5073865;28;20471;-69
2022/11/06 04:58:53;;;;;;;12.00;10.83;;;3.10;99.90;;;;;;5073605;28;20415;-68
2022/11/06 05:01:19;;;;;;;12.37;11.17;;;3.00;99.90;;;;;;5072547;28;20831;-69
2022/11/06 05:03:44;;;;;;;12.80;10.80;;;3.10;99.90;;;;;;5073840;28;20540;-68
2022/11/06 05:06:10;;;;;;;11.80;10.60;;;3.00;99.90;;;;;;5073753;28;20580;-68
2022/11/06 05:08:35;;;;;;;13.10;11.20;;;3.00;99.90;;;;;;5073420;28;20540;-69
2022/11/06 05:11:01;;;;;;;11.27;10.03;;;3.00;99.90;;;;;;5074184;28;20183;-68
2022/11/06 05:13:26;;;;;;;13.47;12.10;;;3.00;99.90;;;;;;5073523;28;20189;-68
2022/11/06 05:16:01;;;;;;;11.57;9.97;;;3.00;99.90;;;;;;5073656;28;20669;-68
2022/11/06 05:18:27;;;;;;;12.83;11.53;;;2.90;99.90;;;;;;5073218;28;20646;-71
2022/11/06 05:23:37;;;;;;;13.27;10.27;;;2.90;99.90;;;;;;5073644;28;20426;-68
2022/11/06 05:26:07;;;;;;;10.83;8.80;;;2.80;99.90;;;;;;5073542;28;20785;-68
2022/11/06 05:28:33;;;;;;;11.40;9.93;;;2.80;99.90;;;;;;5073007;28;20184;-68
2022/11/06 05:30:59;;;;;;;11.87;10.77;;;2.80;99.90;;;;;;5073267;28;20755;-68
2022/11/06 05:33:25;;;;;;;12.30;9.90;;;2.80;99.90;;;;;;5073091;28;20676;-68
2022/11/06 05:35:51;;;;;;;10.43;9.33;;;2.80;99.90;;;;;;5073304;28;20574;-68
2022/11/06 05:38:18;;;;;;;14.03;10.30;;;2.80;99.90;;;;;;5071580;28;20423;-68
2022/11/06 05:40:43;;;;;;;12.00;10.67;;;2.90;99.90;;;;;;5073212;28;20415;-68
2022/11/06 05:43:09;;;;;;;10.67;9.63;;;2.90;99.90;;;;;;5073017;28;20801;-68
2022/11/06 05:45:34;;;;;;;11.77;10.57;;;2.80;99.90;;;;;;5072991;28;20252;-70
2022/11/06 05:48:00;;;;;;;12.80;9.00;;;2.80;99.90;;;;;;5072890;28;20173;-68
2022/11/06 05:50:25;;;;;;;10.10;8.90;;;2.80;99.90;;;;;;5072600;28;20180;-68
2022/11/06 05:52:51;;;;;;;11.00;9.83;;;2.80;99.90;;;;;;5072739;28;20196;-69
2022/11/06 05:55:16;;;;;;;13.30;10.00;;;2.70;99.90;;;;;;5072716;28;20176;-68
2022/11/06 05:57:42;;;;;;;11.50;9.07;;;2.70;99.90;;;;;;5072658;28;20204;-68
2022/11/06 06:00:09;;;;;;;10.60;9.07;;;2.80;99.90;;;;;;5072439;28;20161;-69
2022/11/06 06:02:35;;;;;;;11.43;8.90;;;2.80;99.90;;;;;;5072533;28;20195;-69
2022/11/06 06:05:02;;;;;;;13.93;9.37;;;2.80;99.90;;;;;;5072315;28;20419;-68
2022/11/06 06:07:28;;;;;;;10.40;9.30;;;2.80;99.90;;;;;;5072436;28;20427;-68
2022/11/06 06:09:53;;;;;;;11.43;10.33;;;2.80;99.90;;;;;;5072324;28;20844;-68
2022/11/06 06:12:19;;;;;;;11.10;9.07;;;2.80;99.90;;;;;;5072394;28;20193;-69
2022/11/06 06:14:44;;;;;;;12.10;9.93;;;2.80;99.90;;;;;;5072480;28;20183;-68
2022/11/06 06:17:10;;;;;;;11.60;9.90;;;2.80;99.90;;;;;;5072371;28;20192;-69
2022/11/06 06:19:35;;;;;;;14.20;11.53;;;2.80;99.90;;;;;;5072005;28;20657;-68
2022/11/06 06:22:01;;;;;;;11.20;9.50;;;2.80;99.90;;;;;;5072374;28;20199;-68
2022/11/06 06:24:26;;;;;;;10.97;9.23;;;2.80;99.90;;;;;;5072396;28;20177;-68
2022/11/06 06:26:52;;;;;;;12.87;9.87;;;2.70;99.90;;;;;;5072239;28;20661;-69
2022/11/06 06:29:17;;;;;;;8.70;7.80;;;2.80;99.90;;;;;;5071893;28;20650;-68
2022/11/06 06:31:43;;;;;;;11.50;9.37;;;2.80;99.90;;;;;;5072184;28;20193;-68
2022/11/06 06:34:08;;;;;;;14.73;10.87;;;2.90;99.90;;;;;;5072207;28;20226;-69
2022/11/06 06:36:34;;;;;;;13.57;10.83;;;3.00;99.90;;;;;;5072087;28;20628;-68
2022/11/06 06:38:59;;;;;;;15.40;10.10;;;3.00;99.90;;;;;;5071859;28;20176;-69
2022/11/06 06:41:25;;;;;;;10.90;9.80;;;3.10;99.90;;;;;;5072025;28;20165;-69
2022/11/06 06:43:50;;;;;;;12.23;9.67;;;3.10;99.90;;;;;;5072062;28;20173;-68
2022/11/06 06:46:16;;;;;;;13.40;10.23;;;3.10;99.90;;;;;;5072076;28;20259;-68
2022/11/06 06:48:42;;;;;;;11.80;9.77;;;3.20;99.90;;;;;;5071723;28;20173;-69
2022/11/06 06:51:07;;;;;;;13.03;10.13;;;3.20;99.90;;;;;;5072018;28;20177;-68
2022/11/06 06:53:34;;;;;;;10.53;9.47;;;3.30;99.90;;;;;;5072026;28;20212;-68
2022/11/06 06:56:00;;;;;;;13.30;9.30;;;3.40;99.90;;;;;;5071768;28;20209;-68
2022/11/06 06:58:27;;;;;;;10.80;8.47;;;3.60;99.90;;;;;;5071708;28;20490;-68
2022/11/06 07:00:52;;;;;;;11.80;9.10;;;3.90;99.90;;;;;;5071897;28;20490;-69
2022/11/06 07:03:18;;;;;;;12.43;10.10;;;4.10;99.90;;;;;;5070528;28;20446;-69
2022/11/06 07:05:45;;;;;;;12.57;10.00;;;4.30;99.90;;;;;;5071816;28;20188;-68
2022/11/06 07:08:11;;;;;;;13.27;10.30;;;4.60;99.90;;;;;;5071757;28;20165;-68
2022/11/06 07:10:36;;;;;;;11.30;9.07;;;5.00;99.90;;;;;;5071793;28;20416;-70
2022/11/06 07:13:02;;;;;;;13.40;10.37;;;5.30;99.90;;;;;;5071751;28;20185;-68
2022/11/06 07:15:28;;;;;;;11.73;10.40;;;5.50;99.90;;;;;;5071808;28;20260;-68
2022/11/06 07:17:53;;;;;;;10.07;9.07;;;5.50;99.90;;;;;;5072814;28;20553;-68
2022/11/06 07:20:19;;;;;;;10.70;8.70;;;5.30;99.90;;;;;;5075488;28;20222;-67
2022/11/06 07:22:44;;;;;;;11.37;10.23;;;5.20;99.90;;;;;;5075643;28;20192;-68
2022/11/06 07:25:10;;;;;;;10.50;8.63;;;4.90;99.90;;;;;;5075732;28;20165;-67
2022/11/06 07:27:35;;;;;;;10.70;8.90;;;4.70;99.90;;;;;;5075693;28;20653;-70
2022/11/06 07:30:01;;;;;;;9.97;8.93;;;4.70;99.90;;;;;;5075371;28;20172;-67
2022/11/06 07:32:27;;;;;;;11.27;9.63;;;4.70;99.90;;;;;;5075531;28;20596;-67
2022/11/06 07:34:52;;;;;;;9.60;8.60;;;4.70;99.90;;;;;;5075575;28;20650;-70
2022/11/06 07:37:18;;;;;;;12.50;9.43;;;4.80;99.90;;;;;;5075440;28;20209;-68
2022/11/06 07:39:43;;;;;;;15.63;11.70;;;4.90;99.90;;;;;;5075077;28;20237;-69
2022/11/06 07:42:09;;;;;;;10.70;9.60;;;5.00;99.90;;;;;;5075361;28;20193;-69
2022/11/06 07:44:34;;;;;;;9.53;8.50;;;5.10;99.90;;;;;;5075301;28;20169;-69
2022/11/06 07:47:00;;;;;;;13.77;8.97;;;5.10;99.90;;;;;;5075273;28;20183;-69
2022/11/06 07:49:25;;;;;;;10.40;9.33;;;5.20;99.90;;;;;;5075113;28;20181;-70
2022/11/06 07:51:51;;;;;;;9.87;8.30;;;5.40;99.90;;;;;;5075153;28;20275;-70
2022/11/06 07:54:17;;;;;;;9.73;8.40;;;5.90;99.90;;;;;;5075203;28;20187;-67
2022/11/06 07:56:42;;;;;;;8.20;7.13;;;6.50;99.90;;;;;;5074922;28;20220;-68
2022/11/06 07:59:08;;;;;;;10.30;8.77;;;6.60;99.90;;;;;;5074728;28;20177;-67
2022/11/06 08:01:33;;;;;;;13.97;9.17;;;6.50;99.90;;;;;;5074893;28;20634;-69
2022/11/06 08:03:59;;;;;;;9.23;8.33;;;6.70;99.90;;;;;;5074926;28;20173;-67
2022/11/06 08:06:25;;;;;;;9.07;8.17;;;7.20;99.90;;;;;;5074909;28;20181;-67
2022/11/06 08:08:50;;;;;;;10.50;9.33;;;7.20;99.90;;;;;;5074657;28;20597;-68
2022/11/06 08:11:16;;;;;;;12.80;10.60;;;7.60;99.90;;;;;;5074796;28;20176;-67
2022/11/06 08:13:42;;;;;;;13.57;11.50;;;8.10;99.90;;;;;;5074760;28;20180;-68
2022/11/06 08:16:10;;;;;;;13.33;11.97;;;8.70;99.90;;;;;;5074678;28;20659;-67
2022/11/06 08:18:36;;;;;;;11.63;10.43;;;9.30;99.90;;;;;;5074395;28;20467;-68
2022/11/06 08:21:02;;;;;;;13.90;12.07;;;9.30;99.90;;;;;;5074887;28;20519;-67
2022/11/06 08:23:28;;;;;;;12.87;10.40;;;9.20;99.90;;;;;;5074488;28;20435;-67
2022/11/06 08:25:55;;;;;;;11.00;9.90;;;9.40;99.90;;;;;;5074563;28;20422;-68
2022/11/06 08:28:22;;;;;;;11.60;10.40;;;8.80;99.90;;;;;;5073783;28;20171;-67
2022/11/06 08:30:47;;;;;;;10.43;9.43;;;7.90;99.90;;;;;;5074427;28;20423;-68
2022/11/06 08:33:13;;;;;;;12.73;11.43;;;8.00;99.90;;;;;;5074454;28;20492;-67
2022/11/06 08:35:39;;;;;;;12.87;11.23;;;8.40;99.90;;;;;;5074317;28;20185;-69
2022/11/06 08:38:04;;;;;;;11.83;10.63;;;8.80;99.90;;;;;;5074268;28;20205;-70
2022/11/06 08:40:31;;;;;;;10.37;9.37;;;10.00;99.90;;;;;;5074120;28;20169;-69
2022/11/06 08:43:03;;;;;;;10.40;9.37;;;11.70;99.90;;;;;;5074181;28;20185;-68
2022/11/06 08:45:29;;;;;;;10.63;9.73;;;13.50;99.90;;;;;;5074174;28;20423;-68
2022/11/06 08:48:00;;;;;;;11.37;10.27;;;13.40;99.90;;;;;;5073986;28;20477;-67
2022/11/06 08:50:25;;;;;;;11.30;10.30;;;13.40;99.90;;;;;;5073853;28;20868;-69
2022/11/06 08:52:51;;;;;;;12.20;11.20;;;13.90;99.90;;;;;;5073997;28;20542;-67
2022/11/06 08:55:16;;;;;;;10.93;10.03;;;14.30;99.90;;;;;;5073930;28;20188;-68
2022/11/06 08:57:42;;;;;;;9.47;8.53;;;15.10;99.90;;;;;;5073836;28;20240;-68
2022/11/06 09:00:08;;;;;;;10.50;9.60;;;15.90;99.90;;;;;;5073701;28;20252;-67
2022/11/06 09:02:34;;;;;;;9.57;8.70;;;16.80;99.90;;;;;;5073755;28;20621;-67
2022/11/06 09:04:59;;;;;;;10.73;9.83;;;16.80;99.70;;;;;;5073731;28;20498;-68
2022/11/06 09:07:25;;;;;;;13.10;11.83;;;16.90;99.00;;;;;;5073646;28;20627;-68
2022/11/06 09:09:50;;;;;;;11.40;10.40;;;17.60;98.30;;;;;;5073405;28;20173;-68
2022/11/06 09:12:16;;;;;;;10.63;9.73;;;18.00;96.50;;;;;;5073487;28;20242;-68
2022/11/06 09:14:41;;;;;;;11.10;10.20;;;17.60;97.20;;;;;;5073721;28;20227;-69
2022/11/06 09:17:07;;;;;;;9.73;8.83;;;17.90;96.70;;;;;;5073471;28;20204;-68
2022/11/06 09:19:32;;;;;;;13.93;12.53;;;17.90;96.80;;;;;;5073164;28;20238;-68
2022/11/06 09:21:58;;;;;;;10.67;9.77;;;17.40;97.20;;;;;;5073259;28;20604;-69
2022/11/06 09:24:23;;;;;;;9.10;8.40;;;16.60;98.80;;;;;;5073397;28;20180;-67
2022/11/06 09:26:49;;;;;;;9.33;8.63;;;16.30;99.90;;;;;;5073179;28;20517;-68
2022/11/06 09:29:15;;;;;;;9.33;8.43;;;15.70;99.90;;;;;;5072984;28;20181;-69
2022/11/06 09:31:41;;;;;;;8.43;7.73;;;16.20;99.90;;;;;;5073114;28;20246;-68
2022/11/06 09:34:07;;;;;;;7.57;6.97;;;17.70;99.30;;;;;;5073157;28;20271;-69
2022/11/06 09:36:34;;;;;;;8.60;7.87;;;19.20;95.70;;;;;;5073009;28;20555;-68
2022/11/06 09:38:59;;;;;;;7.57;7.07;;;19.70;93.20;;;;;;5072744;28;20250;-69
2022/11/06 09:41:47;;;;;;;6.47;6.07;;;21.20;90.70;;;;;;5072077;28;21063;-68
2022/11/06 09:44:52;;;;;;;7.10;6.57;;;21.30;85.00;;;;;;5072959;28;20256;-69
2022/11/06 09:47:25;;;;;;;5.93;5.53;;;21.70;81.40;;;;;;5072892;28;20418;-67
2022/11/06 09:49:54;;;;;;;5.50;5.10;;;20.50;83.20;;;;;;5072451;28;20935;-68
2022/11/06 09:52:26;;;;;;;5.03;4.70;;;18.70;86.70;;;;;;5072845;28;20442;-68
2022/11/06 09:54:56;;;;;;;6.13;5.63;;;17.60;92.00;;;;;;5072855;28;20411;-68
2022/11/06 09:57:28;;;;;;;5.83;5.43;;;17.10;93.80;;;;;;5072467;28;20558;-68
2022/11/06 09:59:54;;;;;;;5.37;4.97;;;16.70;96.80;;;;;;5072298;28;20824;-67
2022/11/06 10:02:25;;;;;;;5.53;5.03;;;16.80;96.10;;;;;;5072397;28;20500;-68
2022/11/06 10:05:10;;;;;;;5.63;5.20;;;16.40;96.40;;;;;;5072586;28;20476;-67
2022/11/06 10:07:39;;;;;;;5.30;4.90;;;16.00;98.20;;;;;;5072482;28;20411;-67
2022/11/06 10:10:10;;;;;;;5.90;5.40;;;16.60;97.30;;;;;;5072130;28;20430;-68
2022/11/06 10:13:16;;;;;;;5.77;5.23;;;17.50;96.10;;;;;;5072412;28;20861;-68
2022/11/06 10:15:55;;;;;;;5.00;4.70;;;19.30;90.80;;;;;;5072429;28;20423;-68
2022/11/06 10:18:27;;;;;;;5.00;4.60;;;18.10;92.20;;;;;;5072138;28;21131;-67
2022/11/06 10:21:14;;;;;;;6.30;5.70;;;17.70;93.90;;;;;;5072398;28;20916;-68
2022/11/06 10:23:54;;;;;;;4.50;4.00;;;19.40;92.60;;;;;;5072037;28;20403;-69
2022/11/06 10:26:37;;;;;;;4.13;3.83;;;20.00;89.00;;;;;;5072381;28;20792;-69
2022/11/06 10:29:27;;;;;;;5.23;4.80;;;21.30;84.50;;;;;;5072085;28;20421;-68
2022/11/06 10:31:52;;;;;;;4.77;4.37;;;21.90;81.40;;;;;;5072032;28;20804;-69
2022/11/06 10:34:26;;;;;;;4.73;4.33;;;19.00;82.20;;;;;;5072141;28;20419;-67
2022/11/06 10:37:01;;;;;;;5.03;4.63;;;17.60;90.40;;;;;;5071916;28;20291;-67
2022/11/06 10:39:33;;;;;;;5.00;4.50;;;17.00;93.60;;;;;;5071833;28;20497;-68
2022/11/06 10:42:05;;;;;;;5.53;5.10;;;17.40;93.30;;;;;;5071822;28;20431;-68
2022/11/06 10:44:41;;;;;;;5.53;5.03;;;17.20;93.20;;;;;;5071854;28;20438;-69
2022/11/06 10:47:19;;;;;;;4.93;4.53;;;16.90;95.30;;;;;;5071914;28;20429;-68
2022/11/06 10:50:00;;;;;;;4.77;4.37;;;16.20;97.20;;;;;;5071611;28;20419;-68
2022/11/06 10:52:36;;;;;;;5.80;5.30;;;15.10;99.90;;;;;;5071599;28;20443;-68
2022/11/06 10:55:14;;;;;;;4.67;4.20;;;14.30;99.90;;;;;;5071923;28;20422;-69
2022/11/06 10:57:51;;;;;;;5.00;4.53;;;14.70;99.90;;;;;;5071606;28;20465;-68
2022/11/06 11:00:17;;;;;;;5.17;4.67;;;15.00;99.90;;;;;;5071539;28;20827;-67
2022/11/06 11:02:50;;;;;;;5.57;5.07;;;14.60;99.90;;;;;;5071666;28;20477;-68
2022/11/06 11:05:22;;;;;;;5.80;5.23;;;14.90;99.90;;;;;;5071695;28;20173;-68
2022/11/06 11:07:49;;;;;;;5.23;4.83;;;15.20;99.90;;;;;;5071708;28;20477;-68
2022/11/06 11:10:35;;;;;;;6.47;5.97;;;15.40;99.90;;;;;;5071839;28;20510;-68
2022/11/06 11:13:04;;;;;;;5.90;5.40;;;15.70;99.90;;;;;;5071660;28;20805;-68
2022/11/06 11:15:42;;;;;;;6.20;5.60;;;16.00;99.90;;;;;;5071674;28;20427;-68
2022/11/06 11:18:18;;;;;;;6.77;6.13;;;15.50;99.90;;;;;;5071543;28;20916;-70
2022/11/06 11:20:46;;;;;;;6.47;5.97;;;15.80;99.90;;;;;;5071553;28;20419;-67
2022/11/06 11:23:18;;;;;;;7.20;6.60;;;15.70;99.90;;;;;;5071467;28;20994;-68
2022/11/06 11:25:47;;;;;;;7.47;6.80;;;16.50;99.90;;;;;;5071014;28;20443;-68
2022/11/06 11:28:27;;;;;;;6.50;6.00;;;17.50;99.60;;;;;;5071218;28;20975;-70
2022/11/06 11:31:00;;;;;;;6.60;6.00;;;18.20;97.60;;;;;;5071568;28;20947;-69
2022/11/06 11:33:26;;;;;;;6.10;5.60;;;19.40;94.10;;;;;;5071607;28;20876;-68
2022/11/06 11:35:54;;;;;;;6.73;6.23;;;19.80;91.80;;;;;;5071379;28;20454;-69
2022/11/06 11:38:21;;;;;;;5.80;5.40;;;19.80;91.70;;;;;;5071170;28;20284;-68
2022/11/06 11:40:47;;;;;;;6.40;5.90;;;19.70;92.20;;;;;;5071457;28;20498;-68
2022/11/06 11:43:25;;;;;;;5.87;5.30;;;18.60;91.30;;;;;;5071396;28;20506;-68
2022/11/06 11:46:08;;;;;;;6.00;5.50;;;18.90;93.80;;;;;;5071375;28;20785;-68
2022/11/06 11:48:46;;;;;;;6.13;5.67;;;19.10;93.00;;;;;;5071001;28;20416;-68
2022/11/06 11:51:27;;;;;;;8.37;7.13;;;18.50;92.10;;;;;;5071311;28;20414;-68
2022/11/06 11:53:56;;;;;;;6.30;5.80;;;18.60;93.80;;;;;;5071273;28;20806;-68
2022/11/06 11:56:23;;;;;;;5.93;5.43;;;18.20;93.10;;;;;;5071071;28;20486;-68
2022/11/06 11:58:55;;;;;;;6.60;6.00;;;18.50;93.60;;;;;;5071001;28;20411;-69
2022/11/06 12:01:34;;;;;;;6.30;5.73;;;19.20;90.40;;;;;;5071123;28;20422;-68
2022/11/06 12:03:59;;;;;;;5.57;5.17;;;18.60;91.90;;;;;;5072655;28;20411;-67
2022/11/06 12:06:25;;;;;;;6.00;5.50;;;19.60;90.40;;;;;;5074824;28;20782;-67
2022/11/06 12:08:53;;;;;;;7.77;6.97;;;18.30;91.30;;;;;;5074507;28;20173;-68
2022/11/06 12:11:25;;;;;;;9.40;5.20;;;18.10;92.30;;;;;;5074581;28;20518;-69
2022/11/06 12:14:15;;;;;;;5.80;5.40;;;18.60;92.80;;;;;;5074981;28;20777;-69
2022/11/06 12:16:42;;;;;;;4.73;4.27;;;19.00;90.70;;;;;;5074584;28;20481;-70
2022/11/06 12:19:08;;;;;;;5.73;5.23;;;19.80;87.30;;;;;;5074272;28;20454;-68
2022/11/06 12:21:37;;;;;;;5.57;5.10;;;19.70;87.90;;;;;;5074490;28;20423;-69
2022/11/06 12:24:11;;;;;;;5.77;5.20;;;19.20;88.20;;;;;;5074507;28;20418;-68
2022/11/06 12:26:58;;;;;;;5.13;4.67;;;20.60;84.50;;;;;;5074390;28;20419;-68
2022/11/06 12:29:30;;;;;;;5.27;4.77;;;22.10;77.30;;;;;;5074032;28;20422;-68
2022/11/06 12:32:25;;;;;;;4.93;4.53;;;22.00;75.10;;;;;;5074124;28;20460;-68
2022/11/06 12:35:03;;;;;;;4.93;4.53;;;21.90;74.60;;;;;;5074237;28;20785;-69
2022/11/06 12:37:43;;;;;;;4.10;3.73;;;21.60;75.90;;;;;;5074183;28;20455;-69
2022/11/06 12:40:20;;;;;;;6.50;5.27;;;21.20;75.70;;;;;;5074019;28;20422;-69
2022/11/06 12:43:14;;;;;;;5.63;5.20;;;18.30;83.60;;;;;;5074077;28;20467;-70
2022/11/06 12:45:54;;;;;;;5.03;4.60;;;15.90;94.50;;;;;;5072897;28;20425;-69
2022/11/06 12:48:31;;;;;;;5.80;5.30;;;15.40;98.50;;;;;;5073795;28;20636;-70
2022/11/06 12:51:18;;;;;;;5.90;5.40;;;15.10;99.90;;;;;;5073882;28;20441;-69
2022/11/06 12:53:55;;;;;;;7.97;7.27;;;14.90;99.90;;;;;;5073992;28;20475;-70
2022/11/06 12:56:31;;;;;;;6.60;6.00;;;14.50;99.90;;;;;;5073811;28;20469;-69
2022/11/06 12:59:17;;;;;;;6.43;5.83;;;14.10;99.90;;;;;;5073617;28;20418;-70
2022/11/06 13:02:09;;;;;;;7.20;6.53;;;14.30;99.90;;;;;;5073762;28;20430;-70
2022/11/06 13:05:02;;;;;;;7.00;6.37;;;14.30;99.90;;;;;;5073819;28;20473;-70
2022/11/06 13:08:06;;;;;;;5.67;5.17;;;15.10;99.90;;;;;;5073686;28;20489;-69
2022/11/06 13:10:34;;;;;;;6.00;5.50;;;15.10;99.90;;;;;;5073469;28;20773;-69
2022/11/06 13:13:28;;;;;;;5.97;5.47;;;15.50;99.90;;;;;;5073657;28;21070;-69